sensor_id;sensor_type;location;lat;lon;timestamp;P1;durP1;ratioP1;P2;durP2;ratioP2
59008;SDS011;44794;42.652;23.318;2023-04-01T00:00:04;21.50;;;9.40;;
59008;SDS011;44794;42.652;23.318;2023-04-01T00:02:30;23.50;;;9.05;;
59008;SDS011;44794;42.652;23.318;2023-04-01T00:04:56;18.65;;;8.02;;
59008;SDS011;44794;42.652;23.318;2023-04-01T00:07:21;18.13;;;7.70;;
59008;SDS011;44794;42.652;23.318;2023-04-01T00:09:47;17.75;;;8.13;;
59008;SDS011;44794;42.652;23.318;2023-04-01T00:12:12;17.50;;;8.05;;
59008;SDS011;44794;42.652;23.318;2023-04-01T00:14:38;17.35;;;7.40;;
59008;SDS011;44794;42.652;23.318;2023-04-01T00:17:04;16.33;;;7.57;;
59008;SDS011;44794;42.652;23.318;2023-04-01T00:19:30;15.27;;;7.82;;
59008;SDS011;44794;42.652;23.318;2023-04-01T00:21:57;19.67;;;8.48;;
59008;SDS011;44794;42.652;23.318;2023-04-01T00:24:23;21.27;;;9.38;;
59008;SDS011;44794;42.652;23.318;2023-04-01T00:26:48;18.60;;;10.10;;
59008;SDS011;44794;42.652;23.318;2023-04-01T00:29:14;20.23;;;10.30;;
59008;SDS011;44794;42.652;23.318;2023-04-01T00:31:39;24.90;;;11.63;;
59008;SDS011;44794;42.652;23.318;2023-04-01T00:34:05;21.05;;;12.07;;
59008;SDS011;44794;42.652;23.318;2023-04-01T00:36:30;26.50;;;12.45;;
59008;SDS011;44794;42.652;23.318;2023-04-01T00:38:56;27.85;;;13.43;;
59008;SDS011;44794;42.652;23.318;2023-04-01T00:41:23;27.52;;;13.43;;
59008;SDS011;44794;42.652;23.318;2023-04-01T00:43:51;29.13;;;13.50;;
59008;SDS011;44794;42.652;23.318;2023-04-01T00:46:17;27.15;;;13.38;;
59008;SDS011;44794;42.652;23.318;2023-04-01T00:49:01;23.83;;;13.43;;
59008;SDS011;44794;42.652;23.318;2023-04-01T00:51:27;29.25;;;13.15;;
59008;SDS011;44794;42.652;23.318;2023-04-01T00:53:55;24.13;;;13.15;;
59008;SDS011;44794;42.652;23.318;2023-04-01T00:56:24;25.98;;;13.60;;
59008;SDS011;44794;42.652;23.318;2023-04-01T00:58:57;25.30;;;13.27;;
59008;SDS011;44794;42.652;23.318;2023-04-01T01:01:26;27.15;;;14.05;;
59008;SDS011;44794;42.652;23.318;2023-04-01T01:03:54;28.25;;;13.50;;
59008;SDS011;44794;42.652;23.318;2023-04-01T01:06:26;29.10;;;14.02;;
59008;SDS011;44794;42.652;23.318;2023-04-01T01:14:36;22.00;;;11.55;;
59008;SDS011;44794;42.652;23.318;2023-04-01T01:18:09;19.15;;;10.77;;
59008;SDS011;44794;42.652;23.318;2023-04-01T01:37:14;18.42;;;8.13;;
59008;SDS011;44794;42.652;23.318;2023-04-01T01:39:42;14.20;;;7.68;;
59008;SDS011;44794;42.652;23.318;2023-04-01T01:42:13;18.75;;;9.13;;
59008;SDS011;44794;42.652;23.318;2023-04-01T01:44:42;12.20;;;8.30;;
59008;SDS011;44794;42.652;23.318;2023-04-01T01:47:10;12.80;;;7.45;;
59008;SDS011;44794;42.652;23.318;2023-04-01T01:49:37;13.27;;;7.15;;
59008;SDS011;44794;42.652;23.318;2023-04-01T01:52:05;11.55;;;6.97;;
59008;SDS011;44794;42.652;23.318;2023-04-01T01:54:31;15.93;;;7.03;;
59008;SDS011;44794;42.652;23.318;2023-04-01T01:56:59;13.77;;;6.97;;
59008;SDS011;44794;42.652;23.318;2023-04-01T01:59:31;12.15;;;5.93;;
59008;SDS011;44794;42.652;23.318;2023-04-01T02:01:59;14.30;;;6.18;;
59008;SDS011;44794;42.652;23.318;2023-04-01T02:04:32;12.15;;;6.22;;
59008;SDS011;44794;42.652;23.318;2023-04-01T02:07:05;13.30;;;5.72;;
59008;SDS011;44794;42.652;23.318;2023-04-01T02:09:36;18.63;;;6.68;;
59008;SDS011;44794;42.652;23.318;2023-04-01T02:12:08;14.52;;;6.32;;
59008;SDS011;44794;42.652;23.318;2023-04-01T02:14:54;16.55;;;5.93;;
59008;SDS011;44794;42.652;23.318;2023-04-01T02:17:25;14.85;;;5.43;;
59008;SDS011;44794;42.652;23.318;2023-04-01T02:19:56;13.23;;;5.43;;
59008;SDS011;44794;42.652;23.318;2023-04-01T02:22:25;11.98;;;6.10;;
59008;SDS011;44794;42.652;23.318;2023-04-01T02:24:53;11.40;;;5.72;;
59008;SDS011;44794;42.652;23.318;2023-04-01T02:27:24;10.57;;;5.88;;
59008;SDS011;44794;42.652;23.318;2023-04-01T02:29:50;9.25;;;5.97;;
59008;SDS011;44794;42.652;23.318;2023-04-01T02:32:17;13.60;;;5.63;;
59008;SDS011;44794;42.652;23.318;2023-04-01T02:34:45;12.95;;;5.47;;
59008;SDS011;44794;42.652;23.318;2023-04-01T02:37:11;11.95;;;5.72;;
59008;SDS011;44794;42.652;23.318;2023-04-01T02:39:38;11.70;;;5.97;;
59008;SDS011;44794;42.652;23.318;2023-04-01T02:42:03;11.52;;;5.60;;
59008;SDS011;44794;42.652;23.318;2023-04-01T02:44:30;10.75;;;5.85;;
59008;SDS011;44794;42.652;23.318;2023-04-01T02:46:55;13.68;;;5.80;;
59008;SDS011;44794;42.652;23.318;2023-04-01T02:49:21;16.50;;;6.38;;
59008;SDS011;44794;42.652;23.318;2023-04-01T02:51:46;10.98;;;5.80;;
59008;SDS011;44794;42.652;23.318;2023-04-01T02:54:12;15.70;;;6.15;;
59008;SDS011;44794;42.652;23.318;2023-04-01T02:56:37;17.17;;;6.10;;
59008;SDS011;44794;42.652;23.318;2023-04-01T02:59:03;13.00;;;6.20;;
59008;SDS011;44794;42.652;23.318;2023-04-01T03:01:28;12.35;;;6.32;;
59008;SDS011;44794;42.652;23.318;2023-04-01T03:03:53;16.02;;;7.35;;
59008;SDS011;44794;42.652;23.318;2023-04-01T03:06:19;18.60;;;6.82;;
59008;SDS011;44794;42.652;23.318;2023-04-01T03:08:44;11.48;;;6.75;;
59008;SDS011;44794;42.652;23.318;2023-04-01T03:11:10;15.18;;;6.75;;
59008;SDS011;44794;42.652;23.318;2023-04-01T03:13:35;20.10;;;7.50;;
59008;SDS011;44794;42.652;23.318;2023-04-01T03:16:01;16.15;;;7.30;;
59008;SDS011;44794;42.652;23.318;2023-04-01T03:18:27;16.65;;;6.78;;
59008;SDS011;44794;42.652;23.318;2023-04-01T03:20:52;13.48;;;6.90;;
59008;SDS011;44794;42.652;23.318;2023-04-01T03:23:18;18.35;;;6.72;;
59008;SDS011;44794;42.652;23.318;2023-04-01T03:25:46;12.13;;;6.82;;
59008;SDS011;44794;42.652;23.318;2023-04-01T03:28:12;14.65;;;6.72;;
59008;SDS011;44794;42.652;23.318;2023-04-01T03:30:38;15.30;;;7.38;;
59008;SDS011;44794;42.652;23.318;2023-04-01T03:33:04;15.30;;;7.53;;
59008;SDS011;44794;42.652;23.318;2023-04-01T03:35:29;17.40;;;7.68;;
59008;SDS011;44794;42.652;23.318;2023-04-01T03:37:55;11.52;;;7.03;;
59008;SDS011;44794;42.652;23.318;2023-04-01T03:40:21;13.65;;;8.45;;
59008;SDS011;44794;42.652;23.318;2023-04-01T03:42:46;18.95;;;9.40;;
59008;SDS011;44794;42.652;23.318;2023-04-01T03:45:12;16.65;;;9.40;;
59008;SDS011;44794;42.652;23.318;2023-04-01T03:47:38;16.88;;;9.43;;
59008;SDS011;44794;42.652;23.318;2023-04-01T03:50:05;21.98;;;10.20;;
59008;SDS011;44794;42.652;23.318;2023-04-01T03:52:31;19.40;;;10.48;;
59008;SDS011;44794;42.652;23.318;2023-04-01T03:54:57;16.00;;;7.78;;
59008;SDS011;44794;42.652;23.318;2023-04-01T03:57:22;15.30;;;9.05;;
59008;SDS011;44794;42.652;23.318;2023-04-01T03:59:47;13.65;;;8.40;;
59008;SDS011;44794;42.652;23.318;2023-04-01T04:02:13;14.80;;;7.13;;
59008;SDS011;44794;42.652;23.318;2023-04-01T04:04:38;12.95;;;7.38;;
59008;SDS011;44794;42.652;23.318;2023-04-01T04:07:04;14.95;;;7.85;;
59008;SDS011;44794;42.652;23.318;2023-04-01T04:09:30;16.35;;;7.60;;
59008;SDS011;44794;42.652;23.318;2023-04-01T04:11:56;13.52;;;7.32;;
59008;SDS011;44794;42.652;23.318;2023-04-01T04:14:22;14.43;;;7.35;;
59008;SDS011;44794;42.652;23.318;2023-04-01T04:16:48;12.55;;;6.53;;
59008;SDS011;44794;42.652;23.318;2023-04-01T04:19:13;13.20;;;6.45;;
59008;SDS011;44794;42.652;23.318;2023-04-01T04:21:39;11.60;;;5.93;;
59008;SDS011;44794;42.652;23.318;2023-04-01T04:24:06;13.88;;;7.03;;
59008;SDS011;44794;42.652;23.318;2023-04-01T04:26:31;12.27;;;6.65;;
59008;SDS011;44794;42.652;23.318;2023-04-01T04:28:57;14.20;;;7.20;;
59008;SDS011;44794;42.652;23.318;2023-04-01T04:31:23;17.17;;;7.45;;
59008;SDS011;44794;42.652;23.318;2023-04-01T04:33:49;16.65;;;7.20;;
59008;SDS011;44794;42.652;23.318;2023-04-01T04:36:16;15.18;;;6.85;;
59008;SDS011;44794;42.652;23.318;2023-04-01T04:38:41;11.82;;;7.20;;
59008;SDS011;44794;42.652;23.318;2023-04-01T04:41:10;16.52;;;7.65;;
59008;SDS011;44794;42.652;23.318;2023-04-01T04:43:40;17.20;;;8.10;;
59008;SDS011;44794;42.652;23.318;2023-04-01T04:46:10;17.83;;;8.30;;
59008;SDS011;44794;42.652;23.318;2023-04-01T04:48:36;16.27;;;8.95;;
59008;SDS011;44794;42.652;23.318;2023-04-01T04:51:02;18.45;;;11.88;;
59008;SDS011;44794;42.652;23.318;2023-04-01T04:53:28;18.02;;;8.80;;
59008;SDS011;44794;42.652;23.318;2023-04-01T04:55:53;17.92;;;8.85;;
59008;SDS011;44794;42.652;23.318;2023-04-01T04:58:19;15.95;;;9.32;;
59008;SDS011;44794;42.652;23.318;2023-04-01T05:00:45;16.48;;;8.70;;
59008;SDS011;44794;42.652;23.318;2023-04-01T05:03:11;17.42;;;9.57;;
59008;SDS011;44794;42.652;23.318;2023-04-01T05:05:37;15.07;;;9.10;;
59008;SDS011;44794;42.652;23.318;2023-04-01T05:08:03;21.55;;;9.35;;
59008;SDS011;44794;42.652;23.318;2023-04-01T05:10:29;24.27;;;9.82;;
59008;SDS011;44794;42.652;23.318;2023-04-01T05:12:55;19.48;;;8.52;;
59008;SDS011;44794;42.652;23.318;2023-04-01T05:15:21;21.30;;;9.90;;
59008;SDS011;44794;42.652;23.318;2023-04-01T05:17:46;27.20;;;11.48;;
59008;SDS011;44794;42.652;23.318;2023-04-01T05:20:12;19.73;;;10.70;;
59008;SDS011;44794;42.652;23.318;2023-04-01T05:22:39;19.67;;;9.27;;
59008;SDS011;44794;42.652;23.318;2023-04-01T05:25:05;22.00;;;10.40;;
59008;SDS011;44794;42.652;23.318;2023-04-01T05:27:31;23.63;;;10.15;;
59008;SDS011;44794;42.652;23.318;2023-04-01T05:29:56;17.30;;;9.93;;
59008;SDS011;44794;42.652;23.318;2023-04-01T05:32:22;22.40;;;9.95;;
59008;SDS011;44794;42.652;23.318;2023-04-01T05:34:50;23.05;;;11.13;;
59008;SDS011;44794;42.652;23.318;2023-04-01T05:37:16;49.75;;;24.58;;
59008;SDS011;44794;42.652;23.318;2023-04-01T05:39:42;24.33;;;11.55;;
59008;SDS011;44794;42.652;23.318;2023-04-01T05:42:07;21.80;;;10.70;;
59008;SDS011;44794;42.652;23.318;2023-04-01T05:44:34;18.50;;;9.07;;
59008;SDS011;44794;42.652;23.318;2023-04-01T05:47:00;20.65;;;9.70;;
59008;SDS011;44794;42.652;23.318;2023-04-01T05:49:25;19.58;;;8.80;;
59008;SDS011;44794;42.652;23.318;2023-04-01T05:51:51;18.50;;;10.80;;
59008;SDS011;44794;42.652;23.318;2023-04-01T05:54:17;23.33;;;9.60;;
59008;SDS011;44794;42.652;23.318;2023-04-01T05:56:42;13.90;;;6.80;;
59008;SDS011;44794;42.652;23.318;2023-04-01T05:59:11;15.10;;;6.82;;
59008;SDS011;44794;42.652;23.318;2023-04-01T06:01:37;15.57;;;6.57;;
59008;SDS011;44794;42.652;23.318;2023-04-01T06:04:02;14.05;;;6.40;;
59008;SDS011;44794;42.652;23.318;2023-04-01T06:06:29;15.10;;;5.88;;
59008;SDS011;44794;42.652;23.318;2023-04-01T06:09:05;13.85;;;5.10;;
59008;SDS011;44794;42.652;23.318;2023-04-01T06:12:00;10.73;;;4.68;;
59008;SDS011;44794;42.652;23.318;2023-04-01T06:30:53;10.45;;;3.65;;
59008;SDS011;44794;42.652;23.318;2023-04-01T06:41:39;13.40;;;4.45;;
59008;SDS011;44794;42.652;23.318;2023-04-01T06:55:38;11.13;;;5.47;;
59008;SDS011;44794;42.652;23.318;2023-04-01T06:58:34;12.50;;;5.60;;
59008;SDS011;44794;42.652;23.318;2023-04-01T07:01:02;12.82;;;6.30;;
59008;SDS011;44794;42.652;23.318;2023-04-01T07:03:44;13.60;;;6.57;;
59008;SDS011;44794;42.652;23.318;2023-04-01T07:06:23;16.58;;;7.03;;
59008;SDS011;44794;42.652;23.318;2023-04-01T07:08:58;14.85;;;6.13;;
59008;SDS011;44794;42.652;23.318;2023-04-01T07:13:59;15.02;;;6.97;;
59008;SDS011;44794;42.652;23.318;2023-04-01T07:16:39;12.55;;;6.38;;
59008;SDS011;44794;42.652;23.318;2023-04-01T07:19:24;16.52;;;7.25;;
59008;SDS011;44794;42.652;23.318;2023-04-01T07:22:01;18.20;;;7.22;;
59008;SDS011;44794;42.652;23.318;2023-04-01T07:24:34;11.05;;;6.13;;
59008;SDS011;44794;42.652;23.318;2023-04-01T07:27:02;12.07;;;6.30;;
59008;SDS011;44794;42.652;23.318;2023-04-01T07:29:30;15.88;;;6.25;;
59008;SDS011;44794;42.652;23.318;2023-04-01T07:43:31;14.48;;;6.45;;
59008;SDS011;44794;42.652;23.318;2023-04-01T07:48:50;14.88;;;6.57;;
59008;SDS011;44794;42.652;23.318;2023-04-01T07:52:21;16.08;;;6.80;;
59008;SDS011;44794;42.652;23.318;2023-04-01T07:54:22;13.98;;;7.25;;
59008;SDS011;44794;42.652;23.318;2023-04-01T07:59:35;13.45;;;6.78;;
59008;SDS011;44794;42.652;23.318;2023-04-01T08:10:44;15.20;;;7.00;;
59008;SDS011;44794;42.652;23.318;2023-04-01T08:21:55;14.13;;;6.65;;
59008;SDS011;44794;42.652;23.318;2023-04-01T08:24:40;18.08;;;7.80;;
59008;SDS011;44794;42.652;23.318;2023-04-01T08:27:16;17.67;;;7.50;;
59008;SDS011;44794;42.652;23.318;2023-04-01T08:29:48;17.10;;;7.25;;
59008;SDS011;44794;42.652;23.318;2023-04-01T08:32:25;17.55;;;7.28;;
59008;SDS011;44794;42.652;23.318;2023-04-01T08:34:58;13.60;;;6.60;;
59008;SDS011;44794;42.652;23.318;2023-04-01T08:37:40;21.55;;;7.50;;
59008;SDS011;44794;42.652;23.318;2023-04-01T08:48:56;11.93;;;6.95;;
59008;SDS011;44794;42.652;23.318;2023-04-01T08:57:15;11.23;;;5.80;;
59008;SDS011;44794;42.652;23.318;2023-04-01T09:11:02;11.98;;;4.45;;
59008;SDS011;44794;42.652;23.318;2023-04-01T09:19:07;10.73;;;4.75;;
59008;SDS011;44794;42.652;23.318;2023-04-01T09:34:52;11.50;;;4.45;;
59008;SDS011;44794;42.652;23.318;2023-04-01T09:45:31;8.85;;;4.20;;
59008;SDS011;44794;42.652;23.318;2023-04-01T09:57:17;14.75;;;4.50;;
59008;SDS011;44794;42.652;23.318;2023-04-01T10:19:28;18.60;;;5.03;;
59008;SDS011;44794;42.652;23.318;2023-04-01T10:21:56;12.35;;;4.38;;
59008;SDS011;44794;42.652;23.318;2023-04-01T10:33:12;14.25;;;4.30;;
59008;SDS011;44794;42.652;23.318;2023-04-01T10:36:53;6.95;;;2.38;;
59008;SDS011;44794;42.652;23.318;2023-04-01T10:47:51;12.60;;;4.72;;
59008;SDS011;44794;42.652;23.318;2023-04-01T10:52:23;9.07;;;2.58;;
59008;SDS011;44794;42.652;23.318;2023-04-01T11:01:22;7.82;;;2.20;;
59008;SDS011;44794;42.652;23.318;2023-04-01T11:04:31;16.35;;;6.22;;
59008;SDS011;44794;42.652;23.318;2023-04-01T11:10:31;11.77;;;2.83;;
59008;SDS011;44794;42.652;23.318;2023-04-01T11:13:27;10.20;;;2.80;;
59008;SDS011;44794;42.652;23.318;2023-04-01T11:16:19;10.55;;;2.90;;
59008;SDS011;44794;42.652;23.318;2023-04-01T11:27:52;8.43;;;2.40;;
59008;SDS011;44794;42.652;23.318;2023-04-01T11:33:18;5.37;;;2.10;;
59008;SDS011;44794;42.652;23.318;2023-04-01T11:36:03;9.25;;;2.90;;
59008;SDS011;44794;42.652;23.318;2023-04-01T11:44:51;9.23;;;2.65;;
59008;SDS011;44794;42.652;23.318;2023-04-01T12:08:46;12.77;;;6.00;;
59008;SDS011;44794;42.652;23.318;2023-04-01T12:22:07;20.92;;;8.45;;
59008;SDS011;44794;42.652;23.318;2023-04-01T12:29:48;12.00;;;4.95;;
59008;SDS011;44794;42.652;23.318;2023-04-01T12:38:36;9.45;;;4.63;;
59008;SDS011;44794;42.652;23.318;2023-04-01T12:46:42;13.77;;;5.82;;
59008;SDS011;44794;42.652;23.318;2023-04-01T12:50:09;15.60;;;5.50;;
59008;SDS011;44794;42.652;23.318;2023-04-01T13:18:50;9.98;;;5.35;;
59008;SDS011;44794;42.652;23.318;2023-04-01T13:21:31;10.95;;;6.03;;
59008;SDS011;44794;42.652;23.318;2023-04-01T13:24:15;9.82;;;5.95;;
59008;SDS011;44794;42.652;23.318;2023-04-01T13:29:50;12.13;;;5.15;;
59008;SDS011;44794;42.652;23.318;2023-04-01T13:32:32;7.03;;;4.30;;
59008;SDS011;44794;42.652;23.318;2023-04-01T13:41:01;8.48;;;4.82;;
59008;SDS011;44794;42.652;23.318;2023-04-01T13:43:42;8.15;;;4.28;;
59008;SDS011;44794;42.652;23.318;2023-04-01T13:46:26;8.88;;;5.03;;
59008;SDS011;44794;42.652;23.318;2023-04-01T14:05:50;4.80;;;3.00;;
59008;SDS011;44794;42.652;23.318;2023-04-01T14:08:28;4.35;;;2.28;;
59008;SDS011;44794;42.652;23.318;2023-04-01T14:51:10;10.70;;;5.13;;
59008;SDS011;44794;42.652;23.318;2023-04-01T14:56:47;10.27;;;5.05;;
59008;SDS011;44794;42.652;23.318;2023-04-01T15:04:56;9.73;;;4.72;;
59008;SDS011;44794;42.652;23.318;2023-04-01T15:10:29;8.32;;;4.47;;
59008;SDS011;44794;42.652;23.318;2023-04-01T15:24:07;10.98;;;4.18;;
59008;SDS011;44794;42.652;23.318;2023-04-01T15:27:45;8.82;;;4.80;;
59008;SDS011;44794;42.652;23.318;2023-04-01T15:35:03;9.50;;;4.63;;
59008;SDS011;44794;42.652;23.318;2023-04-01T15:45:58;7.70;;;4.85;;
59008;SDS011;44794;42.652;23.318;2023-04-01T16:11:18;1.75;;;1.25;;
59008;SDS011;44794;42.652;23.318;2023-04-01T16:16:54;4.82;;;2.70;;
59008;SDS011;44794;42.652;23.318;2023-04-01T16:19:29;5.40;;;3.20;;
59008;SDS011;44794;42.652;23.318;2023-04-01T16:22:07;5.90;;;4.03;;
59008;SDS011;44794;42.652;23.318;2023-04-01T16:24:48;6.70;;;3.80;;
59008;SDS011;44794;42.652;23.318;2023-04-01T16:27:24;6.38;;;4.20;;
59008;SDS011;44794;42.652;23.318;2023-04-01T16:33:10;4.55;;;3.20;;
59008;SDS011;44794;42.652;23.318;2023-04-01T16:46:51;3.75;;;2.30;;
59008;SDS011;44794;42.652;23.318;2023-04-01T16:57:17;2.35;;;1.88;;
59008;SDS011;44794;42.652;23.318;2023-04-01T17:00:03;4.38;;;2.30;;
59008;SDS011;44794;42.652;23.318;2023-04-01T17:16:46;3.10;;;2.17;;
59008;SDS011;44794;42.652;23.318;2023-04-01T17:35:35;2.85;;;1.92;;
59008;SDS011;44794;42.652;23.318;2023-04-01T17:38:34;2.88;;;2.08;;
59008;SDS011;44794;42.652;23.318;2023-04-01T17:41:48;2.63;;;2.08;;
59008;SDS011;44794;42.652;23.318;2023-04-01T17:47:17;6.28;;;3.17;;
59008;SDS011;44794;42.652;23.318;2023-04-01T17:53:47;4.38;;;3.42;;
59008;SDS011;44794;42.652;23.318;2023-04-01T17:58:50;4.43;;;2.90;;
59008;SDS011;44794;42.652;23.318;2023-04-01T18:01:34;3.97;;;3.22;;
59008;SDS011;44794;42.652;23.318;2023-04-01T18:04:15;4.63;;;2.97;;
59008;SDS011;44794;42.652;23.318;2023-04-01T18:06:56;4.07;;;2.53;;
59008;SDS011;44794;42.652;23.318;2023-04-01T18:25:53;4.50;;;2.70;;
59008;SDS011;44794;42.652;23.318;2023-04-01T18:28:35;4.07;;;3.60;;
59008;SDS011;44794;42.652;23.318;2023-04-01T18:31:08;4.82;;;3.63;;
59008;SDS011;44794;42.652;23.318;2023-04-01T18:33:49;4.80;;;3.70;;
59008;SDS011;44794;42.652;23.318;2023-04-01T18:39:01;6.30;;;5.22;;
59008;SDS011;44794;42.652;23.318;2023-04-01T18:41:38;10.80;;;7.20;;
59008;SDS011;44794;42.652;23.318;2023-04-01T18:55:54;3.70;;;2.80;;
59008;SDS011;44794;42.652;23.318;2023-04-01T19:01:10;2.85;;;2.30;;
59008;SDS011;44794;42.652;23.318;2023-04-01T19:09:31;2.95;;;2.38;;
59008;SDS011;44794;42.652;23.318;2023-04-01T19:18:00;4.95;;;2.67;;
59008;SDS011;44794;42.652;23.318;2023-04-01T19:20:37;4.15;;;3.10;;
59008;SDS011;44794;42.652;23.318;2023-04-01T19:26:05;5.40;;;3.22;;
59008;SDS011;44794;42.652;23.318;2023-04-01T19:37:05;4.53;;;3.28;;
59008;SDS011;44794;42.652;23.318;2023-04-01T19:42:29;3.30;;;2.60;;
59008;SDS011;44794;42.652;23.318;2023-04-01T19:53:16;4.22;;;3.00;;
59008;SDS011;44794;42.652;23.318;2023-04-01T20:01:25;5.90;;;4.63;;
59008;SDS011;44794;42.652;23.318;2023-04-01T20:03:58;5.30;;;3.90;;
59008;SDS011;44794;42.652;23.318;2023-04-01T20:06:55;3.20;;;2.35;;
59008;SDS011;44794;42.652;23.318;2023-04-01T20:15:00;2.40;;;2.08;;
59008;SDS011;44794;42.652;23.318;2023-04-01T20:22:55;3.58;;;2.53;;
59008;SDS011;44794;42.652;23.318;2023-04-01T20:28:08;3.20;;;2.47;;
59008;SDS011;44794;42.652;23.318;2023-04-01T20:39:44;3.90;;;1.90;;
59008;SDS011;44794;42.652;23.318;2023-04-01T20:42:16;5.07;;;2.70;;
59008;SDS011;44794;42.652;23.318;2023-04-01T20:53:50;5.05;;;3.05;;
59008;SDS011;44794;42.652;23.318;2023-04-01T20:56:24;5.90;;;2.45;;
59008;SDS011;44794;42.652;23.318;2023-04-01T20:59:15;3.15;;;2.72;;
59008;SDS011;44794;42.652;23.318;2023-04-01T21:05:29;3.55;;;2.30;;
59008;SDS011;44794;42.652;23.318;2023-04-01T21:07:52;3.83;;;2.50;;
59008;SDS011;44794;42.652;23.318;2023-04-01T21:21:31;2.30;;;1.52;;
59008;SDS011;44794;42.652;23.318;2023-04-01T21:27:37;2.35;;;1.75;;
59008;SDS011;44794;42.652;23.318;2023-04-01T21:32:46;1.80;;;1.55;;
59008;SDS011;44794;42.652;23.318;2023-04-01T21:35:42;3.28;;;1.90;;
59008;SDS011;44794;42.652;23.318;2023-04-01T21:49:30;1.42;;;1.33;;
59008;SDS011;44794;42.652;23.318;2023-04-01T21:52:16;3.17;;;1.20;;
59008;SDS011;44794;42.652;23.318;2023-04-01T22:05:37;1.90;;;1.40;;
59008;SDS011;44794;42.652;23.318;2023-04-01T22:10:54;1.88;;;1.10;;
59008;SDS011;44794;42.652;23.318;2023-04-01T22:13:54;2.50;;;1.30;;
59008;SDS011;44794;42.652;23.318;2023-04-01T22:19:15;1.48;;;1.20;;
59008;SDS011;44794;42.652;23.318;2023-04-01T22:24:48;2.70;;;1.30;;
59008;SDS011;44794;42.652;23.318;2023-04-01T22:32:47;3.70;;;1.40;;
59008;SDS011;44794;42.652;23.318;2023-04-01T22:38:15;1.70;;;0.80;;
59008;SDS011;44794;42.652;23.318;2023-04-01T22:43:54;2.70;;;0.70;;
59008;SDS011;44794;42.652;23.318;2023-04-01T22:54:28;2.05;;;1.00;;
59008;SDS011;44794;42.652;23.318;2023-04-01T22:56:59;1.95;;;1.05;;
59008;SDS011;44794;42.652;23.318;2023-04-01T23:04:55;2.53;;;1.25;;
59008;SDS011;44794;42.652;23.318;2023-04-01T23:09:52;3.55;;;1.35;;
59008;SDS011;44794;42.652;23.318;2023-04-01T23:12:21;2.50;;;1.08;;
59008;SDS011;44794;42.652;23.318;2023-04-01T23:14:48;3.28;;;1.00;;
59008;SDS011;44794;42.652;23.318;2023-04-01T23:17:28;1.85;;;1.20;;
59008;SDS011;44794;42.652;23.318;2023-04-01T23:28:53;2.03;;;0.90;;
59008;SDS011;44794;42.652;23.318;2023-04-01T23:34:00;1.17;;;0.80;;
59008;SDS011;44794;42.652;23.318;2023-04-01T23:36:30;0.85;;;0.70;;
59008;SDS011;44794;42.652;23.318;2023-04-01T23:39:03;0.88;;;0.77;;
59008;SDS011;44794;42.652;23.318;2023-04-01T23:41:32;1.00;;;0.90;;
59008;SDS011;44794;42.652;23.318;2023-04-01T23:43:59;1.90;;;0.80;;
59008;SDS011;44794;42.652;23.318;2023-04-01T23:46:29;2.35;;;0.80;;
59008;SDS011;44794;42.652;23.318;2023-04-01T23:48:56;3.38;;;0.88;;
59008;SDS011;44794;42.652;23.318;2023-04-01T23:51:23;1.05;;;0.70;;
59008;SDS011;44794;42.652;23.318;2023-04-01T23:53:56;1.80;;;0.77;;
59008;SDS011;44794;42.652;23.318;2023-04-01T23:56:53;1.83;;;0.77;;
59008;SDS011;44794;42.652;23.318;2023-04-01T23:59:23;0.95;;;0.70;;
